sensor_id;sensor_type;location;lat;lon;timestamp;P1;durP1;ratioP1;P2;durP2;ratioP2
8584;SDS011;7180;52.742;11.420;2023-07-13T00:00:26;9.00;;;8.50;;
8584;SDS011;7180;52.742;11.420;2023-07-13T00:02:52;9.53;;;9.03;;
8584;SDS011;7180;52.742;11.420;2023-07-13T00:05:21;9.70;;;9.00;;
8584;SDS011;7180;52.742;11.420;2023-07-13T00:07:47;10.00;;;9.30;;
8584;SDS011;7180;52.742;11.420;2023-07-13T00:10:13;9.53;;;9.03;;
8584;SDS011;7180;52.742;11.420;2023-07-13T00:12:39;9.77;;;9.27;;
8584;SDS011;7180;52.742;11.420;2023-07-13T00:15:06;10.00;;;9.30;;
8584;SDS011;7180;52.742;11.420;2023-07-13T00:17:36;9.80;;;9.20;;
8584;SDS011;7180;52.742;11.420;2023-07-13T00:20:04;9.73;;;9.13;;
8584;SDS011;7180;52.742;11.420;2023-07-13T00:22:30;9.67;;;9.17;;
8584;SDS011;7180;52.742;11.420;2023-07-13T00:24:55;10.50;;;9.70;;
8584;SDS011;7180;52.742;11.420;2023-07-13T00:27:21;10.37;;;9.77;;
8584;SDS011;7180;52.742;11.420;2023-07-13T00:29:47;10.40;;;9.80;;
8584;SDS011;7180;52.742;11.420;2023-07-13T00:32:12;10.87;;;10.20;;
8584;SDS011;7180;52.742;11.420;2023-07-13T00:34:38;11.50;;;10.80;;
8584;SDS011;7180;52.742;11.420;2023-07-13T00:37:04;11.17;;;10.47;;
8584;SDS011;7180;52.742;11.420;2023-07-13T00:39:31;10.67;;;10.10;;
8584;SDS011;7180;52.742;11.420;2023-07-13T00:41:57;10.83;;;10.20;;
8584;SDS011;7180;52.742;11.420;2023-07-13T00:44:23;10.40;;;9.80;;
8584;SDS011;7180;52.742;11.420;2023-07-13T00:46:48;10.50;;;9.80;;
8584;SDS011;7180;52.742;11.420;2023-07-13T00:49:15;10.23;;;9.63;;
8584;SDS011;7180;52.742;11.420;2023-07-13T00:51:59;10.97;;;10.37;;
8584;SDS011;7180;52.742;11.420;2023-07-13T00:54:32;10.77;;;10.20;;
8584;SDS011;7180;52.742;11.420;2023-07-13T00:57:02;10.67;;;10.07;;
8584;SDS011;7180;52.742;11.420;2023-07-13T00:59:29;10.30;;;9.70;;
8584;SDS011;7180;52.742;11.420;2023-07-13T01:01:56;10.50;;;9.90;;
8584;SDS011;7180;52.742;11.420;2023-07-13T01:04:23;11.17;;;10.30;;
8584;SDS011;7180;52.742;11.420;2023-07-13T01:06:49;10.60;;;10.00;;
8584;SDS011;7180;52.742;11.420;2023-07-13T01:09:15;10.30;;;9.70;;
8584;SDS011;7180;52.742;11.420;2023-07-13T01:11:41;10.57;;;9.90;;
8584;SDS011;7180;52.742;11.420;2023-07-13T01:14:07;10.13;;;9.53;;
8584;SDS011;7180;52.742;11.420;2023-07-13T01:16:33;10.50;;;9.90;;
8584;SDS011;7180;52.742;11.420;2023-07-13T01:19:00;10.60;;;10.00;;
8584;SDS011;7180;52.742;11.420;2023-07-13T01:21:28;10.80;;;10.10;;
8584;SDS011;7180;52.742;11.420;2023-07-13T01:23:57;10.90;;;10.20;;
8584;SDS011;7180;52.742;11.420;2023-07-13T01:26:23;10.60;;;10.00;;
8584;SDS011;7180;52.742;11.420;2023-07-13T01:28:48;10.90;;;10.20;;
8584;SDS011;7180;52.742;11.420;2023-07-13T01:31:13;11.30;;;10.60;;
8584;SDS011;7180;52.742;11.420;2023-07-13T01:33:39;11.10;;;10.33;;
8584;SDS011;7180;52.742;11.420;2023-07-13T01:36:09;11.03;;;10.27;;
8584;SDS011;7180;52.742;11.420;2023-07-13T01:38:35;10.70;;;10.00;;
8584;SDS011;7180;52.742;11.420;2023-07-13T01:41:02;10.77;;;10.17;;
8584;SDS011;7180;52.742;11.420;2023-07-13T01:43:28;11.07;;;10.33;;
8584;SDS011;7180;52.742;11.420;2023-07-13T01:45:53;10.60;;;9.93;;
8584;SDS011;7180;52.742;11.420;2023-07-13T01:48:18;10.43;;;9.70;;
8584;SDS011;7180;52.742;11.420;2023-07-13T01:50:45;10.77;;;10.07;;
8584;SDS011;7180;52.742;11.420;2023-07-13T01:53:10;10.70;;;10.07;;
8584;SDS011;7180;52.742;11.420;2023-07-13T01:55:36;10.40;;;9.80;;
8584;SDS011;7180;52.742;11.420;2023-07-13T01:58:02;10.17;;;9.67;;
8584;SDS011;7180;52.742;11.420;2023-07-13T02:00:28;10.47;;;9.87;;
8584;SDS011;7180;52.742;11.420;2023-07-13T02:02:54;10.43;;;9.83;;
8584;SDS011;7180;52.742;11.420;2023-07-13T02:05:19;10.40;;;9.80;;
8584;SDS011;7180;52.742;11.420;2023-07-13T02:07:45;9.63;;;9.10;;
8584;SDS011;7180;52.742;11.420;2023-07-13T02:10:10;10.50;;;9.90;;
8584;SDS011;7180;52.742;11.420;2023-07-13T02:12:36;10.17;;;9.57;;
8584;SDS011;7180;52.742;11.420;2023-07-13T02:15:02;10.87;;;10.07;;
8584;SDS011;7180;52.742;11.420;2023-07-13T02:17:29;10.87;;;10.10;;
8584;SDS011;7180;52.742;11.420;2023-07-13T02:19:54;10.60;;;10.00;;
8584;SDS011;7180;52.742;11.420;2023-07-13T02:22:20;10.63;;;9.93;;
8584;SDS011;7180;52.742;11.420;2023-07-13T02:24:45;11.00;;;10.30;;
8584;SDS011;7180;52.742;11.420;2023-07-13T02:27:11;9.80;;;9.20;;
8584;SDS011;7180;52.742;11.420;2023-07-13T02:29:36;10.20;;;9.60;;
8584;SDS011;7180;52.742;11.420;2023-07-13T02:32:01;10.60;;;10.00;;
8584;SDS011;7180;52.742;11.420;2023-07-13T02:34:26;10.93;;;10.30;;
8584;SDS011;7180;52.742;11.420;2023-07-13T02:36:52;10.43;;;9.83;;
8584;SDS011;7180;52.742;11.420;2023-07-13T02:39:17;10.33;;;9.73;;
8584;SDS011;7180;52.742;11.420;2023-07-13T02:41:43;10.60;;;10.00;;
8584;SDS011;7180;52.742;11.420;2023-07-13T02:44:08;11.03;;;10.23;;
8584;SDS011;7180;52.742;11.420;2023-07-13T02:46:35;10.93;;;10.23;;
8584;SDS011;7180;52.742;11.420;2023-07-13T02:49:01;10.80;;;10.20;;
8584;SDS011;7180;52.742;11.420;2023-07-13T02:51:27;10.80;;;10.10;;
8584;SDS011;7180;52.742;11.420;2023-07-13T02:53:53;10.77;;;10.10;;
8584;SDS011;7180;52.742;11.420;2023-07-13T02:56:23;11.60;;;10.77;;
8584;SDS011;7180;52.742;11.420;2023-07-13T02:58:49;11.20;;;10.50;;
8584;SDS011;7180;52.742;11.420;2023-07-13T03:01:15;11.13;;;10.43;;
8584;SDS011;7180;52.742;11.420;2023-07-13T03:03:46;11.10;;;10.50;;
8584;SDS011;7180;52.742;11.420;2023-07-13T03:06:12;11.17;;;10.53;;
8584;SDS011;7180;52.742;11.420;2023-07-13T03:08:38;11.50;;;10.80;;
8584;SDS011;7180;52.742;11.420;2023-07-13T03:11:05;11.90;;;11.00;;
8584;SDS011;7180;52.742;11.420;2023-07-13T03:13:33;11.23;;;10.53;;
8584;SDS011;7180;52.742;11.420;2023-07-13T03:15:58;11.70;;;11.00;;
8584;SDS011;7180;52.742;11.420;2023-07-13T03:18:23;11.13;;;10.50;;
8584;SDS011;7180;52.742;11.420;2023-07-13T03:20:50;11.77;;;10.83;;
8584;SDS011;7180;52.742;11.420;2023-07-13T03:23:16;12.10;;;11.30;;
8584;SDS011;7180;52.742;11.420;2023-07-13T03:25:41;11.23;;;10.53;;
8584;SDS011;7180;52.742;11.420;2023-07-13T03:28:07;10.97;;;10.20;;
8584;SDS011;7180;52.742;11.420;2023-07-13T03:30:32;11.20;;;10.50;;
8584;SDS011;7180;52.742;11.420;2023-07-13T03:32:57;11.43;;;10.70;;
8584;SDS011;7180;52.742;11.420;2023-07-13T03:35:23;11.10;;;10.40;;
8584;SDS011;7180;52.742;11.420;2023-07-13T03:37:48;11.50;;;10.80;;
8584;SDS011;7180;52.742;11.420;2023-07-13T03:40:13;11.30;;;10.50;;
8584;SDS011;7180;52.742;11.420;2023-07-13T03:42:38;11.43;;;10.73;;
8584;SDS011;7180;52.742;11.420;2023-07-13T03:45:04;11.53;;;10.73;;
8584;SDS011;7180;52.742;11.420;2023-07-13T03:47:30;11.50;;;10.80;;
8584;SDS011;7180;52.742;11.420;2023-07-13T03:49:55;11.40;;;10.60;;
8584;SDS011;7180;52.742;11.420;2023-07-13T03:52:20;11.23;;;10.53;;
8584;SDS011;7180;52.742;11.420;2023-07-13T03:54:46;10.83;;;10.23;;
8584;SDS011;7180;52.742;11.420;2023-07-13T03:57:11;11.90;;;11.00;;
8584;SDS011;7180;52.742;11.420;2023-07-13T03:59:36;11.30;;;10.70;;
8584;SDS011;7180;52.742;11.420;2023-07-13T04:02:02;11.47;;;10.77;;
8584;SDS011;7180;52.742;11.420;2023-07-13T04:04:29;11.63;;;10.90;;
8584;SDS011;7180;52.742;11.420;2023-07-13T04:06:56;12.00;;;11.20;;
8584;SDS011;7180;52.742;11.420;2023-07-13T04:09:23;11.60;;;10.90;;
8584;SDS011;7180;52.742;11.420;2023-07-13T04:11:49;11.93;;;11.23;;
8584;SDS011;7180;52.742;11.420;2023-07-13T04:14:15;12.50;;;11.70;;
8584;SDS011;7180;52.742;11.420;2023-07-13T04:16:41;12.07;;;11.37;;
8584;SDS011;7180;52.742;11.420;2023-07-13T04:19:07;12.73;;;11.90;;
8584;SDS011;7180;52.742;11.420;2023-07-13T04:21:33;12.60;;;11.80;;
8584;SDS011;7180;52.742;11.420;2023-07-13T04:23:58;12.30;;;11.40;;
8584;SDS011;7180;52.742;11.420;2023-07-13T04:26:24;11.37;;;10.77;;
8584;SDS011;7180;52.742;11.420;2023-07-13T04:28:50;11.40;;;10.73;;
8584;SDS011;7180;52.742;11.420;2023-07-13T04:31:16;11.50;;;10.80;;
8584;SDS011;7180;52.742;11.420;2023-07-13T04:33:42;11.70;;;11.00;;
8584;SDS011;7180;52.742;11.420;2023-07-13T04:36:08;11.57;;;10.87;;
8584;SDS011;7180;52.742;11.420;2023-07-13T04:38:34;12.40;;;11.63;;
8584;SDS011;7180;52.742;11.420;2023-07-13T04:41:01;12.07;;;11.20;;
8584;SDS011;7180;52.742;11.420;2023-07-13T04:43:29;11.80;;;11.00;;
8584;SDS011;7180;52.742;11.420;2023-07-13T04:45:54;10.70;;;10.00;;
8584;SDS011;7180;52.742;11.420;2023-07-13T04:48:21;10.20;;;9.50;;
8584;SDS011;7180;52.742;11.420;2023-07-13T04:50:47;10.50;;;9.80;;
8584;SDS011;7180;52.742;11.420;2023-07-13T04:53:12;11.03;;;10.30;;
8584;SDS011;7180;52.742;11.420;2023-07-13T04:55:38;11.33;;;10.57;;
8584;SDS011;7180;52.742;11.420;2023-07-13T04:58:04;9.57;;;9.07;;
8584;SDS011;7180;52.742;11.420;2023-07-13T05:00:30;10.03;;;9.33;;
8584;SDS011;7180;52.742;11.420;2023-07-13T05:02:56;9.60;;;9.00;;
8584;SDS011;7180;52.742;11.420;2023-07-13T05:05:22;10.70;;;9.87;;
8584;SDS011;7180;52.742;11.420;2023-07-13T05:07:49;10.90;;;10.10;;
8584;SDS011;7180;52.742;11.420;2023-07-13T05:10:14;10.90;;;10.20;;
8584;SDS011;7180;52.742;11.420;2023-07-13T05:12:40;10.40;;;9.70;;
8584;SDS011;7180;52.742;11.420;2023-07-13T05:15:06;11.17;;;10.33;;
8584;SDS011;7180;52.742;11.420;2023-07-13T05:17:32;11.67;;;10.87;;
8584;SDS011;7180;52.742;11.420;2023-07-13T05:19:57;11.07;;;10.27;;
8584;SDS011;7180;52.742;11.420;2023-07-13T05:22:22;10.53;;;9.67;;
8584;SDS011;7180;52.742;11.420;2023-07-13T05:24:47;10.20;;;9.60;;
8584;SDS011;7180;52.742;11.420;2023-07-13T05:27:13;10.40;;;9.80;;
8584;SDS011;7180;52.742;11.420;2023-07-13T05:29:38;10.50;;;9.90;;
8584;SDS011;7180;52.742;11.420;2023-07-13T05:32:03;10.33;;;9.70;;
8584;SDS011;7180;52.742;11.420;2023-07-13T05:34:29;11.17;;;10.43;;
8584;SDS011;7180;52.742;11.420;2023-07-13T05:36:54;10.50;;;9.80;;
8584;SDS011;7180;52.742;11.420;2023-07-13T05:39:20;10.50;;;9.80;;
8584;SDS011;7180;52.742;11.420;2023-07-13T05:41:45;10.77;;;10.17;;
8584;SDS011;7180;52.742;11.420;2023-07-13T05:44:10;10.73;;;10.07;;
8584;SDS011;7180;52.742;11.420;2023-07-13T05:46:35;10.38;;;9.68;;
8584;SDS011;7180;52.742;11.420;2023-07-13T05:49:01;10.77;;;10.10;;
8584;SDS011;7180;52.742;11.420;2023-07-13T05:51:26;9.88;;;9.27;;
8584;SDS011;7180;52.742;11.420;2023-07-13T05:53:51;9.85;;;9.25;;
8584;SDS011;7180;52.742;11.420;2023-07-13T05:56:17;10.02;;;9.45;;
8584;SDS011;7180;52.742;11.420;2023-07-13T05:58:42;10.57;;;9.73;;
8584;SDS011;7180;52.742;11.420;2023-07-13T06:01:11;9.63;;;9.02;;
8584;SDS011;7180;52.742;11.420;2023-07-13T06:03:39;9.60;;;9.00;;
8584;SDS011;7180;52.742;11.420;2023-07-13T06:06:05;9.40;;;8.90;;
8584;SDS011;7180;52.742;11.420;2023-07-13T06:08:32;9.77;;;9.13;;
8584;SDS011;7180;52.742;11.420;2023-07-13T06:13:35;8.65;;;8.25;;
8584;SDS011;7180;52.742;11.420;2023-07-13T06:16:00;9.43;;;8.93;;
8584;SDS011;7180;52.742;11.420;2023-07-13T06:18:29;10.02;;;9.43;;
8584;SDS011;7180;52.742;11.420;2023-07-13T06:20:54;9.77;;;9.18;;
8584;SDS011;7180;52.742;11.420;2023-07-13T06:23:19;9.50;;;8.85;;
8584;SDS011;7180;52.742;11.420;2023-07-13T06:25:44;9.70;;;9.20;;
8584;SDS011;7180;52.742;11.420;2023-07-13T06:28:10;9.52;;;8.93;;
8584;SDS011;7180;52.742;11.420;2023-07-13T06:30:37;10.20;;;9.32;;
8584;SDS011;7180;52.742;11.420;2023-07-13T06:33:03;9.10;;;8.50;;
8584;SDS011;7180;52.742;11.420;2023-07-13T06:35:28;9.68;;;8.88;;
8584;SDS011;7180;52.742;11.420;2023-07-13T06:37:53;11.32;;;10.30;;
8584;SDS011;7180;52.742;11.420;2023-07-13T06:40:19;16.05;;;13.02;;
8584;SDS011;7180;52.742;11.420;2023-07-13T06:42:44;13.50;;;11.70;;
8584;SDS011;7180;52.742;11.420;2023-07-13T06:45:09;12.48;;;11.02;;
8584;SDS011;7180;52.742;11.420;2023-07-13T06:47:35;9.00;;;8.45;;
8584;SDS011;7180;52.742;11.420;2023-07-13T06:50:00;12.05;;;10.77;;
8584;SDS011;7180;52.742;11.420;2023-07-13T06:52:25;12.35;;;11.02;;
8584;SDS011;7180;52.742;11.420;2023-07-13T06:54:51;12.63;;;11.25;;
8584;SDS011;7180;52.742;11.420;2023-07-13T06:57:16;9.55;;;8.77;;
8584;SDS011;7180;52.742;11.420;2023-07-13T06:59:41;8.50;;;7.93;;
8584;SDS011;7180;52.742;11.420;2023-07-13T07:02:08;9.07;;;8.57;;
8584;SDS011;7180;52.742;11.420;2023-07-13T07:04:35;8.90;;;8.30;;
8584;SDS011;7180;52.742;11.420;2023-07-13T07:07:00;8.85;;;8.25;;
8584;SDS011;7180;52.742;11.420;2023-07-13T07:09:25;7.95;;;7.45;;
8584;SDS011;7180;52.742;11.420;2023-07-13T07:11:50;8.20;;;7.63;;
8584;SDS011;7180;52.742;11.420;2023-07-13T07:14:16;8.60;;;8.00;;
8584;SDS011;7180;52.742;11.420;2023-07-13T07:16:41;8.77;;;8.27;;
8584;SDS011;7180;52.742;11.420;2023-07-13T07:19:06;8.80;;;8.20;;
8584;SDS011;7180;52.742;11.420;2023-07-13T07:21:31;8.23;;;7.70;;
8584;SDS011;7180;52.742;11.420;2023-07-13T07:23:57;8.20;;;7.47;;
8584;SDS011;7180;52.742;11.420;2023-07-13T07:26:22;7.82;;;7.32;;
8584;SDS011;7180;52.742;11.420;2023-07-13T07:28:48;8.30;;;7.70;;
8584;SDS011;7180;52.742;11.420;2023-07-13T07:31:13;8.60;;;8.00;;
8584;SDS011;7180;52.742;11.420;2023-07-13T07:33:38;9.18;;;8.48;;
8584;SDS011;7180;52.742;11.420;2023-07-13T07:36:04;9.05;;;8.30;;
8584;SDS011;7180;52.742;11.420;2023-07-13T07:38:29;9.07;;;8.40;;
8584;SDS011;7180;52.742;11.420;2023-07-13T07:40:54;8.60;;;8.10;;
8584;SDS011;7180;52.742;11.420;2023-07-13T07:43:20;8.30;;;7.70;;
8584;SDS011;7180;52.742;11.420;2023-07-13T07:45:45;8.90;;;8.23;;
8584;SDS011;7180;52.742;11.420;2023-07-13T07:48:11;8.90;;;8.30;;
8584;SDS011;7180;52.742;11.420;2023-07-13T07:50:37;8.82;;;8.20;;
8584;SDS011;7180;52.742;11.420;2023-07-13T07:53:03;8.35;;;7.88;;
8584;SDS011;7180;52.742;11.420;2023-07-13T07:55:32;9.43;;;8.65;;
8584;SDS011;7180;52.742;11.420;2023-07-13T07:57:58;8.30;;;7.70;;
8584;SDS011;7180;52.742;11.420;2023-07-13T08:00:23;9.13;;;8.52;;
8584;SDS011;7180;52.742;11.420;2023-07-13T08:02:49;9.00;;;8.30;;
8584;SDS011;7180;52.742;11.420;2023-07-13T08:05:14;9.60;;;9.00;;
8584;SDS011;7180;52.742;11.420;2023-07-13T08:07:40;9.00;;;8.40;;
8584;SDS011;7180;52.742;11.420;2023-07-13T08:10:06;9.13;;;8.52;;
8584;SDS011;7180;52.742;11.420;2023-07-13T08:12:38;9.07;;;8.40;;
8584;SDS011;7180;52.742;11.420;2023-07-13T08:15:04;9.10;;;8.50;;
8584;SDS011;7180;52.742;11.420;2023-07-13T08:17:30;8.27;;;7.78;;
8584;SDS011;7180;52.742;11.420;2023-07-13T08:19:56;8.73;;;8.23;;
8584;SDS011;7180;52.742;11.420;2023-07-13T08:22:21;9.10;;;8.10;;
8584;SDS011;7180;52.742;11.420;2023-07-13T08:24:46;9.35;;;8.50;;
8584;SDS011;7180;52.742;11.420;2023-07-13T08:27:20;9.25;;;8.55;;
8584;SDS011;7180;52.742;11.420;2023-07-13T08:29:45;8.85;;;8.25;;
8584;SDS011;7180;52.742;11.420;2023-07-13T08:32:12;9.15;;;8.40;;
8584;SDS011;7180;52.742;11.420;2023-07-13T08:34:38;9.75;;;8.93;;
8584;SDS011;7180;52.742;11.420;2023-07-13T08:37:04;10.13;;;9.25;;
8584;SDS011;7180;52.742;11.420;2023-07-13T08:39:30;9.30;;;8.60;;
8584;SDS011;7180;52.742;11.420;2023-07-13T08:41:57;9.05;;;8.45;;
8584;SDS011;7180;52.742;11.420;2023-07-13T08:44:27;8.95;;;8.35;;
8584;SDS011;7180;52.742;11.420;2023-07-13T08:47:11;9.20;;;8.50;;
8584;SDS011;7180;52.742;11.420;2023-07-13T08:49:40;9.55;;;8.85;;
8584;SDS011;7180;52.742;11.420;2023-07-13T08:52:09;10.15;;;9.45;;
8584;SDS011;7180;52.742;11.420;2023-07-13T08:54:49;9.32;;;8.63;;
8584;SDS011;7180;52.742;11.420;2023-07-13T08:57:20;8.60;;;7.80;;
8584;SDS011;7180;52.742;11.420;2023-07-13T08:59:49;9.48;;;8.88;;
8584;SDS011;7180;52.742;11.420;2023-07-13T09:02:17;10.30;;;9.50;;
8584;SDS011;7180;52.742;11.420;2023-07-13T09:04:55;10.15;;;9.35;;
8584;SDS011;7180;52.742;11.420;2023-07-13T09:07:39;10.18;;;9.38;;
8584;SDS011;7180;52.742;11.420;2023-07-13T09:10:20;9.85;;;9.25;;
8584;SDS011;7180;52.742;11.420;2023-07-13T09:15:45;9.40;;;8.70;;
8584;SDS011;7180;52.742;11.420;2023-07-13T09:20:46;9.93;;;9.23;;
8584;SDS011;7180;52.742;11.420;2023-07-13T09:23:16;9.85;;;9.23;;
8584;SDS011;7180;52.742;11.420;2023-07-13T09:25:45;9.10;;;8.40;;
8584;SDS011;7180;52.742;11.420;2023-07-13T09:28:17;9.82;;;9.13;;
8584;SDS011;7180;52.742;11.420;2023-07-13T09:33:37;7.75;;;7.25;;
8584;SDS011;7180;52.742;11.420;2023-07-13T09:36:12;8.70;;;8.02;;
8584;SDS011;7180;52.742;11.420;2023-07-13T09:38:42;8.77;;;8.18;;
8584;SDS011;7180;52.742;11.420;2023-07-13T09:41:29;8.60;;;8.00;;
8584;SDS011;7180;52.742;11.420;2023-07-13T09:44:17;9.18;;;8.68;;
8584;SDS011;7180;52.742;11.420;2023-07-13T09:46:53;9.23;;;8.55;;
8584;SDS011;7180;52.742;11.420;2023-07-13T09:49:23;9.55;;;8.68;;
8584;SDS011;7180;52.742;11.420;2023-07-13T09:51:50;9.40;;;8.63;;
8584;SDS011;7180;52.742;11.420;2023-07-13T09:54:27;9.23;;;8.70;;
8584;SDS011;7180;52.742;11.420;2023-07-13T09:56:56;8.52;;;7.82;;
8584;SDS011;7180;52.742;11.420;2023-07-13T09:59:23;8.68;;;7.97;;
8584;SDS011;7180;52.742;11.420;2023-07-13T10:01:52;8.20;;;7.50;;
8584;SDS011;7180;52.742;11.420;2023-07-13T10:04:18;6.95;;;6.50;;
8584;SDS011;7180;52.742;11.420;2023-07-13T10:06:44;9.95;;;9.30;;
8584;SDS011;7180;52.742;11.420;2023-07-13T10:09:14;9.60;;;8.77;;
8584;SDS011;7180;52.742;11.420;2023-07-13T10:11:41;8.77;;;8.32;;
8584;SDS011;7180;52.742;11.420;2023-07-13T10:16:43;8.23;;;7.72;;
8584;SDS011;7180;52.742;11.420;2023-07-13T10:19:12;8.30;;;7.70;;
8584;SDS011;7180;52.742;11.420;2023-07-13T10:21:50;7.07;;;6.68;;
8584;SDS011;7180;52.742;11.420;2023-07-13T10:24:24;8.90;;;8.30;;
8584;SDS011;7180;52.742;11.420;2023-07-13T10:26:54;8.68;;;8.18;;
8584;SDS011;7180;52.742;11.420;2023-07-13T10:29:23;8.52;;;8.13;;
8584;SDS011;7180;52.742;11.420;2023-07-13T10:31:52;9.63;;;8.93;;
8584;SDS011;7180;52.742;11.420;2023-07-13T10:34:17;8.75;;;8.25;;
8584;SDS011;7180;52.742;11.420;2023-07-13T10:36:44;9.07;;;8.57;;
8584;SDS011;7180;52.742;11.420;2023-07-13T10:39:26;9.05;;;8.45;;
8584;SDS011;7180;52.742;11.420;2023-07-13T10:41:54;9.88;;;9.20;;
8584;SDS011;7180;52.742;11.420;2023-07-13T10:44:27;9.98;;;9.38;;
8584;SDS011;7180;52.742;11.420;2023-07-13T10:47:01;10.40;;;9.70;;
8584;SDS011;7180;52.742;11.420;2023-07-13T10:49:31;9.48;;;8.88;;
8584;SDS011;7180;52.742;11.420;2023-07-13T10:51:58;9.40;;;8.80;;
8584;SDS011;7180;52.742;11.420;2023-07-13T10:57:07;8.73;;;8.10;;
8584;SDS011;7180;52.742;11.420;2023-07-13T10:59:41;8.00;;;7.50;;
8584;SDS011;7180;52.742;11.420;2023-07-13T11:02:22;8.52;;;8.07;;
8584;SDS011;7180;52.742;11.420;2023-07-13T11:04:51;9.25;;;8.65;;
8584;SDS011;7180;52.742;11.420;2023-07-13T11:07:20;9.23;;;8.52;;
8584;SDS011;7180;52.742;11.420;2023-07-13T11:09:58;8.68;;;8.18;;
8584;SDS011;7180;52.742;11.420;2023-07-13T11:19:51;8.80;;;8.13;;
8584;SDS011;7180;52.742;11.420;2023-07-13T11:22:21;9.50;;;8.90;;
8584;SDS011;7180;52.742;11.420;2023-07-13T11:24:49;8.63;;;8.10;;
8584;SDS011;7180;52.742;11.420;2023-07-13T11:30:08;7.55;;;7.05;;
8584;SDS011;7180;52.742;11.420;2023-07-13T11:38:18;8.35;;;7.95;;
8584;SDS011;7180;52.742;11.420;2023-07-13T11:40:47;8.70;;;8.10;;
8584;SDS011;7180;52.742;11.420;2023-07-13T11:43:15;8.23;;;7.72;;
8584;SDS011;7180;52.742;11.420;2023-07-13T11:45:42;8.93;;;8.38;;
8584;SDS011;7180;52.742;11.420;2023-07-13T11:48:17;9.13;;;8.57;;
8584;SDS011;7180;52.742;11.420;2023-07-13T11:50:49;9.30;;;8.70;;
8584;SDS011;7180;52.742;11.420;2023-07-13T11:53:22;9.82;;;9.13;;
8584;SDS011;7180;52.742;11.420;2023-07-13T11:55:52;7.80;;;7.30;;
8584;SDS011;7180;52.742;11.420;2023-07-13T11:58:19;8.20;;;7.70;;
8584;SDS011;7180;52.742;11.420;2023-07-13T12:00:49;8.95;;;8.43;;
8584;SDS011;7180;52.742;11.420;2023-07-13T12:03:14;8.40;;;7.97;;
8584;SDS011;7180;52.742;11.420;2023-07-13T12:05:55;9.00;;;8.40;;
8584;SDS011;7180;52.742;11.420;2023-07-13T12:08:22;8.00;;;7.50;;
8584;SDS011;7180;52.742;11.420;2023-07-13T12:10:47;7.78;;;7.32;;
8584;SDS011;7180;52.742;11.420;2023-07-13T12:13:12;8.07;;;7.40;;
8584;SDS011;7180;52.742;11.420;2023-07-13T12:15:43;9.05;;;8.45;;
8584;SDS011;7180;52.742;11.420;2023-07-13T12:18:12;9.60;;;8.82;;
8584;SDS011;7180;52.742;11.420;2023-07-13T12:20:40;9.25;;;8.65;;
8584;SDS011;7180;52.742;11.420;2023-07-13T12:23:06;9.15;;;8.65;;
8584;SDS011;7180;52.742;11.420;2023-07-13T12:25:46;9.13;;;8.57;;
8584;SDS011;7180;52.742;11.420;2023-07-13T12:28:47;7.90;;;7.40;;
8584;SDS011;7180;52.742;11.420;2023-07-13T12:31:20;7.75;;;7.35;;
8584;SDS011;7180;52.742;11.420;2023-07-13T12:33:58;8.25;;;7.75;;
8584;SDS011;7180;52.742;11.420;2023-07-13T12:36:25;8.90;;;8.38;;
8584;SDS011;7180;52.742;11.420;2023-07-13T12:38:51;8.95;;;8.38;;
8584;SDS011;7180;52.742;11.420;2023-07-13T12:41:16;9.00;;;8.50;;
8584;SDS011;7180;52.742;11.420;2023-07-13T12:43:42;9.00;;;8.60;;
8584;SDS011;7180;52.742;11.420;2023-07-13T12:46:17;9.00;;;8.40;;
8584;SDS011;7180;52.742;11.420;2023-07-13T12:48:50;9.07;;;8.38;;
8584;SDS011;7180;52.742;11.420;2023-07-13T12:51:16;9.25;;;8.65;;
8584;SDS011;7180;52.742;11.420;2023-07-13T12:53:47;9.20;;;8.70;;
8584;SDS011;7180;52.742;11.420;2023-07-13T12:56:21;8.60;;;8.10;;
8584;SDS011;7180;52.742;11.420;2023-07-13T12:58:48;8.43;;;7.93;;
8584;SDS011;7180;52.742;11.420;2023-07-13T13:01:19;8.20;;;7.70;;
8584;SDS011;7180;52.742;11.420;2023-07-13T13:03:48;8.45;;;7.85;;
8584;SDS011;7180;52.742;11.420;2023-07-13T13:08:45;9.00;;;8.50;;
8584;SDS011;7180;52.742;11.420;2023-07-13T13:11:13;8.70;;;8.00;;
8584;SDS011;7180;52.742;11.420;2023-07-13T13:13:41;8.05;;;7.63;;
8584;SDS011;7180;52.742;11.420;2023-07-13T13:16:11;8.65;;;7.97;;
8584;SDS011;7180;52.742;11.420;2023-07-13T13:18:39;9.00;;;8.40;;
8584;SDS011;7180;52.742;11.420;2023-07-13T13:21:04;8.68;;;8.00;;
8584;SDS011;7180;52.742;11.420;2023-07-13T13:23:30;8.90;;;8.30;;
8584;SDS011;7180;52.742;11.420;2023-07-13T13:25:55;8.50;;;7.90;;
8584;SDS011;7180;52.742;11.420;2023-07-13T13:28:20;8.48;;;8.07;;
8584;SDS011;7180;52.742;11.420;2023-07-13T13:30:47;8.05;;;7.63;;
8584;SDS011;7180;52.742;11.420;2023-07-13T13:33:15;8.68;;;8.07;;
8584;SDS011;7180;52.742;11.420;2023-07-13T13:35:42;8.98;;;8.48;;
8584;SDS011;7180;52.742;11.420;2023-07-13T13:38:09;7.30;;;6.90;;
8584;SDS011;7180;52.742;11.420;2023-07-13T13:40:37;7.43;;;7.03;;
8584;SDS011;7180;52.742;11.420;2023-07-13T13:43:02;7.50;;;7.03;;
8584;SDS011;7180;52.742;11.420;2023-07-13T13:45:38;7.22;;;6.82;;
8584;SDS011;7180;52.742;11.420;2023-07-13T13:48:04;8.32;;;7.93;;
8584;SDS011;7180;52.742;11.420;2023-07-13T13:50:30;7.90;;;7.50;;
8584;SDS011;7180;52.742;11.420;2023-07-13T13:52:55;8.25;;;7.85;;
8584;SDS011;7180;52.742;11.420;2023-07-13T13:55:21;7.80;;;7.40;;
8584;SDS011;7180;52.742;11.420;2023-07-13T13:57:49;8.40;;;7.90;;
8584;SDS011;7180;52.742;11.420;2023-07-13T14:00:15;8.50;;;8.00;;
8584;SDS011;7180;52.742;11.420;2023-07-13T14:02:42;8.35;;;7.95;;
8584;SDS011;7180;52.742;11.420;2023-07-13T14:05:13;8.18;;;7.78;;
8584;SDS011;7180;52.742;11.420;2023-07-13T14:07:39;8.70;;;8.20;;
8584;SDS011;7180;52.742;11.420;2023-07-13T14:10:10;8.43;;;7.93;;
8584;SDS011;7180;52.742;11.420;2023-07-13T14:12:38;8.75;;;8.18;;
8584;SDS011;7180;52.742;11.420;2023-07-13T14:15:04;8.52;;;8.00;;
8584;SDS011;7180;52.742;11.420;2023-07-13T14:17:30;7.78;;;7.38;;
8584;SDS011;7180;52.742;11.420;2023-07-13T14:19:56;8.00;;;7.53;;
8584;SDS011;7180;52.742;11.420;2023-07-13T14:22:25;7.88;;;7.47;;
8584;SDS011;7180;52.742;11.420;2023-07-13T14:24:52;8.60;;;8.20;;
8584;SDS011;7180;52.742;11.420;2023-07-13T14:27:18;8.02;;;7.63;;
8584;SDS011;7180;52.742;11.420;2023-07-13T14:29:44;7.95;;;7.50;;
8584;SDS011;7180;52.742;11.420;2023-07-13T14:32:09;8.48;;;7.88;;
8584;SDS011;7180;52.742;11.420;2023-07-13T14:34:36;8.50;;;8.02;;
8584;SDS011;7180;52.742;11.420;2023-07-13T14:37:02;8.80;;;8.30;;
8584;SDS011;7180;52.742;11.420;2023-07-13T14:39:29;7.80;;;7.40;;
8584;SDS011;7180;52.742;11.420;2023-07-13T14:41:55;8.60;;;8.10;;
8584;SDS011;7180;52.742;11.420;2023-07-13T14:44:26;8.18;;;7.70;;
8584;SDS011;7180;52.742;11.420;2023-07-13T14:46:54;8.13;;;7.72;;
8584;SDS011;7180;52.742;11.420;2023-07-13T14:49:24;8.60;;;8.07;;
8584;SDS011;7180;52.742;11.420;2023-07-13T14:51:54;8.48;;;7.88;;
8584;SDS011;7180;52.742;11.420;2023-07-13T14:54:22;8.30;;;7.80;;
8584;SDS011;7180;52.742;11.420;2023-07-13T14:56:48;8.13;;;7.47;;
8584;SDS011;7180;52.742;11.420;2023-07-13T14:59:14;8.43;;;8.03;;
8584;SDS011;7180;52.742;11.420;2023-07-13T15:01:39;8.73;;;8.23;;
8584;SDS011;7180;52.742;11.420;2023-07-13T15:04:05;8.80;;;8.30;;
8584;SDS011;7180;52.742;11.420;2023-07-13T15:06:30;8.47;;;8.00;;
8584;SDS011;7180;52.742;11.420;2023-07-13T15:08:56;8.50;;;7.80;;
8584;SDS011;7180;52.742;11.420;2023-07-13T15:11:22;8.40;;;7.90;;
8584;SDS011;7180;52.742;11.420;2023-07-13T15:13:48;8.30;;;7.80;;
8584;SDS011;7180;52.742;11.420;2023-07-13T15:16:15;8.30;;;7.90;;
8584;SDS011;7180;52.742;11.420;2023-07-13T15:18:48;8.20;;;7.70;;
8584;SDS011;7180;52.742;11.420;2023-07-13T15:21:18;8.80;;;8.30;;
8584;SDS011;7180;52.742;11.420;2023-07-13T15:23:46;8.43;;;8.03;;
8584;SDS011;7180;52.742;11.420;2023-07-13T15:26:12;7.90;;;7.60;;
8584;SDS011;7180;52.742;11.420;2023-07-13T15:28:40;8.40;;;7.90;;